createdAt,value
2022-10-20T00:00:54.056Z,0.00
2022-10-20T00:01:54.035Z,0.00
2022-10-20T00:02:54.795Z,0.00
2022-10-20T00:03:54.004Z,0.00
2022-10-20T00:04:53.988Z,0.00
2022-10-20T00:05:53.975Z,0.00
2022-10-20T00:06:54.004Z,0.00
2022-10-20T00:07:53.963Z,0.00
2022-10-20T00:08:54.141Z,0.00
2022-10-20T00:09:53.973Z,0.00
2022-10-20T00:10:53.961Z,0.00
2022-10-20T00:11:53.932Z,0.00
2022-10-20T00:12:53.944Z,0.00
2022-10-20T00:13:53.951Z,0.00
2022-10-20T00:14:53.922Z,0.00
2022-10-20T00:15:53.942Z,0.00
2022-10-20T00:16:53.924Z,0.00
2022-10-20T00:17:53.909Z,0.00
2022-10-20T00:18:53.954Z,0.00
2022-10-20T00:19:53.881Z,0.00
2022-10-20T00:20:53.890Z,0.00
2022-10-20T00:21:54.398Z,0.00
2022-10-20T00:22:53.878Z,0.00
2022-10-20T00:23:53.877Z,0.00
2022-10-20T00:24:53.849Z,0.00
2022-10-20T00:25:53.860Z,0.00
2022-10-20T00:26:54.109Z,0.00
2022-10-20T00:27:53.829Z,0.00
2022-10-20T00:28:53.848Z,0.00
2022-10-20T00:29:53.816Z,0.00
2022-10-20T00:30:53.927Z,0.00
2022-10-20T00:31:53.829Z,0.00
2022-10-20T00:32:53.945Z,0.00
2022-10-20T00:33:53.959Z,0.00
2022-10-20T00:34:53.799Z,0.00
2022-10-20T00:35:53.785Z,0.00
2022-10-20T00:36:53.826Z,0.00
2022-10-20T00:37:53.766Z,0.00
2022-10-20T00:38:53.765Z,0.00
2022-10-20T00:39:53.774Z,0.00
2022-10-20T00:40:53.744Z,0.00
2022-10-20T00:41:53.745Z,0.00
2022-10-20T00:42:53.944Z,0.00
2022-10-20T00:43:53.724Z,0.00
2022-10-20T00:44:53.754Z,0.00
2022-10-20T00:45:53.720Z,0.00
2022-10-20T00:46:53.713Z,0.00
2022-10-20T00:47:53.705Z,0.00
2022-10-20T00:48:54.662Z,0.00
2022-10-20T00:49:53.703Z,0.00
2022-10-20T00:50:53.682Z,0.00
2022-10-20T00:51:53.702Z,0.00
2022-10-20T00:52:53.671Z,0.00
2022-10-20T00:53:53.660Z,0.00
2022-10-20T00:54:53.674Z,0.00
2022-10-20T00:55:53.655Z,0.00
2022-10-20T00:56:53.721Z,0.00
2022-10-20T00:57:53.760Z,0.00
2022-10-20T00:58:53.650Z,0.00
2022-10-20T00:59:53.789Z,0.00
2022-10-20T01:00:53.791Z,0.00
2022-10-20T01:01:53.656Z,0.00
2022-10-20T01:02:53.660Z,0.00
2022-10-20T01:03:53.588Z,0.00
2022-10-20T01:04:53.611Z,0.00
2022-10-20T01:05:53.578Z,0.00
2022-10-20T01:06:53.608Z,0.00
2022-10-20T01:07:53.572Z,0.00
2022-10-20T01:08:53.637Z,0.00
2022-10-20T01:09:53.568Z,0.00
2022-10-20T01:10:53.547Z,0.00
2022-10-20T01:11:53.537Z,0.00
2022-10-20T01:12:53.539Z,0.00
2022-10-20T01:13:53.526Z,0.00
2022-10-20T01:14:53.612Z,0.00
2022-10-20T01:15:53.528Z,0.00
2022-10-20T01:16:53.523Z,0.00
2022-10-20T01:17:53.496Z,0.00
2022-10-20T01:18:53.505Z,0.00
2022-10-20T01:19:53.495Z,0.00
2022-10-20T01:20:53.506Z,0.00
2022-10-20T01:21:53.496Z,0.00
2022-10-20T01:22:53.484Z,0.00
2022-10-20T01:23:53.463Z,0.00
2022-10-20T01:24:53.460Z,0.00
2022-10-20T01:25:53.465Z,0.00
2022-10-20T01:26:53.453Z,0.00
2022-10-20T01:27:53.433Z,0.00
2022-10-20T01:28:53.440Z,0.00
2022-10-20T01:29:53.432Z,0.00
2022-10-20T01:30:53.423Z,0.00
2022-10-20T01:31:53.610Z,0.00
2022-10-20T01:32:53.423Z,0.00
2022-10-20T01:33:53.409Z,0.00
2022-10-20T01:34:53.401Z,0.00
2022-10-20T01:35:53.413Z,0.00
2022-10-20T01:36:53.419Z,0.00
2022-10-20T01:37:53.567Z,0.00
2022-10-20T01:38:53.361Z,0.00
2022-10-20T01:39:53.349Z,0.00
2022-10-20T01:40:53.367Z,0.00
2022-10-20T01:41:53.349Z,0.00
2022-10-20T01:42:53.561Z,0.00
2022-10-20T01:43:53.607Z,0.00
2022-10-20T01:44:53.414Z,0.00
2022-10-20T01:45:53.607Z,0.00
2022-10-20T01:46:53.797Z,0.00
2022-10-20T01:47:53.796Z,0.00
2022-10-20T01:48:53.818Z,0.00
2022-10-20T01:49:53.817Z,0.00
2022-10-20T01:50:53.865Z,0.00
2022-10-20T01:51:53.648Z,0.00
2022-10-20T01:52:53.377Z,0.00
2022-10-20T01:53:54.039Z,0.00
2022-10-20T01:54:54.060Z,0.00
2022-10-20T01:55:54.079Z,0.00
2022-10-20T01:56:53.280Z,0.00
2022-10-20T01:57:54.172Z,0.00
2022-10-20T01:58:53.235Z,0.00
2022-10-20T01:59:54.236Z,0.00
2022-10-20T02:00:53.267Z,0.00
2022-10-20T02:01:53.315Z,0.00
2022-10-20T02:02:53.208Z,0.00
2022-10-20T02:03:54.513Z,0.00
2022-10-20T02:04:53.194Z,0.00
2022-10-20T02:05:53.915Z,0.00
2022-10-20T02:06:53.242Z,0.00
2022-10-20T02:07:53.324Z,0.00
2022-10-20T02:08:53.206Z,0.00
2022-10-20T02:10:53.742Z,0.00
2022-10-20T02:11:54.123Z,0.00
2022-10-20T02:12:54.002Z,0.00
2022-10-20T02:13:54.162Z,0.00
2022-10-20T02:14:53.611Z,0.00
2022-10-20T02:15:53.972Z,0.00
2022-10-20T02:16:53.165Z,0.00
2022-10-20T02:17:53.100Z,0.00
2022-10-20T02:18:53.203Z,0.00
2022-10-20T02:19:53.260Z,0.00
2022-10-20T02:20:53.190Z,0.00
2022-10-20T02:21:53.120Z,0.00
2022-10-20T02:22:53.427Z,0.00
2022-10-20T02:23:54.535Z,0.00
2022-10-20T02:24:53.080Z,0.00
2022-10-20T02:25:53.050Z,0.00
2022-10-20T02:26:53.069Z,0.00
2022-10-20T02:27:53.054Z,0.00
2022-10-20T02:28:53.050Z,0.00
2022-10-20T02:29:53.048Z,0.00
2022-10-20T02:30:53.098Z,0.00
2022-10-20T02:31:53.269Z,0.00
2022-10-20T02:32:53.028Z,0.00
2022-10-20T02:33:53.277Z,0.00
2022-10-20T02:34:53.027Z,0.00
2022-10-20T02:35:53.337Z,0.00
2022-10-20T02:36:53.155Z,0.00
2022-10-20T02:37:53.517Z,0.00
2022-10-20T02:38:53.527Z,0.00
2022-10-20T02:39:53.368Z,0.00
2022-10-20T02:40:52.946Z,0.00
2022-10-20T02:41:52.945Z,0.00
2022-10-20T02:42:52.955Z,0.00
2022-10-20T02:43:52.924Z,0.00
2022-10-20T02:44:52.967Z,0.00
2022-10-20T02:45:52.952Z,0.00
2022-10-20T02:46:52.954Z,0.00
2022-10-20T02:47:52.962Z,0.00
2022-10-20T02:48:52.973Z,0.00
2022-10-20T02:49:52.891Z,0.00
2022-10-20T02:50:52.884Z,0.00
2022-10-20T02:51:52.955Z,0.00
2022-10-20T02:52:53.002Z,0.00
2022-10-20T02:53:52.862Z,0.00
2022-10-20T02:54:53.052Z,0.00
2022-10-20T02:55:53.066Z,0.00
2022-10-20T02:58:18.811Z,0.00
2022-10-20T02:59:19.029Z,0.00
2022-10-20T03:00:19.065Z,0.00
2022-10-20T03:01:18.827Z,0.00
2022-10-20T03:02:18.790Z,0.00
2022-10-20T03:03:19.112Z,0.00
2022-10-20T03:04:19.321Z,0.00
2022-10-20T03:05:18.749Z,0.00
2022-10-20T03:06:18.748Z,0.00
2022-10-20T03:07:18.757Z,0.00
2022-10-20T03:08:18.747Z,0.00
2022-10-20T03:09:18.716Z,0.00
2022-10-20T03:10:18.715Z,0.00
2022-10-20T03:11:18.705Z,0.00
2022-10-20T03:12:18.715Z,0.00
2022-10-20T03:13:18.741Z,0.00
2022-10-20T03:14:18.694Z,0.00
2022-10-20T03:15:18.676Z,0.00
2022-10-20T03:16:18.674Z,0.00
2022-10-20T03:17:18.677Z,0.00
2022-10-20T03:18:18.753Z,0.00
2022-10-20T03:19:19.384Z,0.00
2022-10-20T03:20:18.768Z,0.00
2022-10-20T03:21:18.641Z,0.00
2022-10-20T03:22:18.690Z,0.00
2022-10-20T03:23:20.076Z,0.00
2022-10-20T03:24:18.622Z,0.00
2022-10-20T03:25:18.612Z,0.00
2022-10-20T03:26:18.612Z,0.00
2022-10-20T03:27:18.613Z,0.00
2022-10-20T03:28:18.602Z,0.00
2022-10-20T03:29:18.584Z,0.00
2022-10-20T03:30:18.583Z,0.00
2022-10-20T03:31:19.541Z,0.00
2022-10-20T03:32:18.603Z,0.00
2022-10-20T03:33:19.600Z,0.00
2022-10-20T03:34:18.643Z,0.00
2022-10-20T03:35:18.557Z,0.00
2022-10-20T03:36:18.585Z,0.00
2022-10-20T03:37:18.573Z,0.00
2022-10-20T03:38:18.568Z,0.00
2022-10-20T03:39:18.739Z,0.00
2022-10-20T03:40:18.888Z,0.00
2022-10-20T03:41:18.520Z,0.00
2022-10-20T03:42:18.536Z,0.00
2022-10-20T03:43:18.517Z,0.00
2022-10-20T03:44:18.978Z,0.00
2022-10-20T03:45:18.990Z,0.00
2022-10-20T03:46:19.028Z,0.00
2022-10-20T03:47:18.527Z,0.00
2022-10-20T03:48:18.518Z,0.00
2022-10-20T03:49:19.227Z,0.00
2022-10-20T03:50:18.506Z,0.00
2022-10-20T03:51:19.366Z,0.00
2022-10-20T03:52:19.316Z,0.00
2022-10-20T03:53:19.385Z,0.00
2022-10-20T03:54:19.383Z,0.00
2022-10-20T03:55:19.464Z,0.00
2022-10-20T03:56:19.444Z,0.00
2022-10-20T03:57:18.624Z,0.00
2022-10-20T03:58:19.254Z,0.00
2022-10-20T03:59:18.404Z,0.00
2022-10-20T04:00:18.412Z,0.00
2022-10-20T04:01:18.500Z,0.00
2022-10-20T04:02:18.424Z,0.00
2022-10-20T04:03:18.433Z,0.00
2022-10-20T04:04:18.441Z,0.00
2022-10-20T04:05:18.513Z,0.00
2022-10-20T04:06:18.520Z,0.00
2022-10-20T04:07:18.666Z,0.00
2022-10-20T04:08:18.715Z,0.00
2022-10-20T04:09:18.681Z,0.00
2022-10-20T04:10:18.683Z,0.00
2022-10-20T04:11:18.354Z,0.00
2022-10-20T04:12:18.309Z,0.00
2022-10-20T04:13:18.323Z,0.00
2022-10-20T04:14:18.360Z,0.00
2022-10-20T04:15:18.369Z,0.00
2022-10-20T04:16:18.279Z,0.00
2022-10-20T04:17:18.517Z,0.00
2022-10-20T04:18:18.518Z,0.00
2022-10-20T04:19:18.599Z,0.00
2022-10-20T04:20:18.608Z,0.00
2022-10-20T04:21:18.537Z,0.00
2022-10-20T04:22:18.748Z,0.00
2022-10-20T04:23:18.261Z,0.00
2022-10-20T04:24:18.838Z,0.00
2022-10-20T04:25:18.847Z,0.00
2022-10-20T04:26:18.977Z,0.00
2022-10-20T04:27:18.447Z,0.00
2022-10-20T04:28:18.198Z,0.00
2022-10-20T04:29:18.200Z,0.00
2022-10-20T04:30:18.216Z,0.00
2022-10-20T04:31:18.216Z,0.00
2022-10-20T04:32:18.206Z,0.00
2022-10-20T04:33:18.207Z,0.00
2022-10-20T04:34:18.218Z,0.00
2022-10-20T04:35:18.187Z,0.00
2022-10-20T04:36:18.184Z,0.00
2022-10-20T04:37:18.264Z,0.00
2022-10-20T04:38:18.145Z,0.00
2022-10-20T04:39:18.197Z,0.00
2022-10-20T04:40:18.136Z,0.00
2022-10-20T04:41:18.124Z,0.00
2022-10-20T04:42:18.103Z,0.00
2022-10-20T04:43:18.123Z,0.00
2022-10-20T04:44:18.094Z,0.00
2022-10-20T04:45:18.083Z,0.00
2022-10-20T04:46:18.074Z,0.00
2022-10-20T04:47:18.072Z,0.00
2022-10-20T04:48:18.087Z,0.00
2022-10-20T04:49:18.062Z,0.00
2022-10-20T04:50:18.323Z,0.00
2022-10-20T04:51:18.112Z,0.00
2022-10-20T04:52:18.061Z,0.00
2022-10-20T04:53:18.040Z,0.00
2022-10-20T04:54:18.033Z,0.00
2022-10-20T04:55:18.024Z,0.00
2022-10-20T04:56:18.011Z,0.00
2022-10-20T04:57:18.032Z,0.00
2022-10-20T04:58:17.999Z,0.00
2022-10-20T04:59:17.997Z,0.00
2022-10-20T05:00:17.988Z,0.00
2022-10-20T05:01:18.050Z,0.00
2022-10-20T05:02:17.990Z,0.00
2022-10-20T05:03:17.971Z,0.00
2022-10-20T05:04:17.958Z,0.00
2022-10-20T05:05:17.969Z,0.00
2022-10-20T05:06:17.947Z,0.00
2022-10-20T05:07:17.958Z,0.00
2022-10-20T05:08:17.938Z,0.00
2022-10-20T05:09:17.927Z,0.00
2022-10-20T05:10:17.916Z,0.00
2022-10-20T05:11:17.927Z,0.00
2022-10-20T05:12:17.939Z,0.00
2022-10-20T05:13:17.905Z,0.00
2022-10-20T05:14:17.894Z,0.00
2022-10-20T05:15:17.885Z,0.00
2022-10-20T05:16:17.882Z,0.00
2022-10-20T05:17:17.894Z,0.00
2022-10-20T05:18:17.889Z,0.00
2022-10-20T05:19:17.871Z,0.00
2022-10-20T05:20:17.894Z,0.00
2022-10-20T05:21:17.903Z,0.00
2022-10-20T05:22:17.913Z,0.00
2022-10-20T05:23:17.842Z,0.00
2022-10-20T05:24:20.884Z,0.00
2022-10-20T05:25:35.565Z,0.00
2022-10-20T05:26:17.822Z,0.00
2022-10-20T05:27:17.843Z,0.00
2022-10-20T05:28:17.842Z,1.00
2022-10-20T05:29:17.851Z,0.00
2022-10-20T05:30:18.062Z,0.00
2022-10-20T05:31:17.791Z,0.00
2022-10-20T05:32:17.791Z,1.00
2022-10-20T05:33:17.770Z,1.00
2022-10-20T05:34:17.760Z,1.00
2022-10-20T05:35:17.790Z,2.00
2022-10-20T05:36:20.989Z,2.00
2022-10-20T05:37:18.110Z,3.00
2022-10-20T05:38:17.739Z,5.00
2022-10-20T05:39:17.730Z,5.00
2022-10-20T05:40:17.721Z,9.00
2022-10-20T05:41:18.339Z,12.00
2022-10-20T05:42:17.721Z,16.00
2022-10-20T05:43:17.709Z,22.00
2022-10-20T05:44:17.697Z,27.00
2022-10-20T05:45:17.697Z,32.00
2022-10-20T05:46:17.678Z,35.00
2022-10-20T05:47:17.688Z,37.00
2022-10-20T05:48:17.667Z,37.00
2022-10-20T05:49:17.699Z,38.00
2022-10-20T05:50:18.125Z,42.00
2022-10-20T05:51:18.617Z,45.00
2022-10-20T05:52:18.547Z,49.00
2022-10-20T05:53:17.638Z,86.00
2022-10-20T05:54:17.627Z,101.00
2022-10-20T05:55:17.646Z,113.00
2022-10-20T05:56:17.633Z,125.00
2022-10-20T05:57:17.635Z,134.00
2022-10-20T05:58:19.646Z,155.00
2022-10-20T05:59:17.684Z,172.00
2022-10-20T06:00:17.604Z,194.00
2022-10-20T06:01:17.648Z,203.00
2022-10-20T06:02:17.603Z,216.00
2022-10-20T06:03:19.675Z,239.00
2022-10-20T06:04:17.585Z,244.00
2022-10-20T06:05:17.594Z,259.00
2022-10-20T06:06:17.573Z,270.00
2022-10-20T06:07:17.592Z,281.00
2022-10-20T06:08:17.703Z,288.00
2022-10-20T06:09:17.537Z,321.00
2022-10-20T06:10:17.523Z,334.00
2022-10-20T06:11:17.523Z,347.00
2022-10-20T06:12:17.521Z,359.00
2022-10-20T06:13:17.529Z,401.00
2022-10-20T06:14:17.523Z,435.00
2022-10-20T06:15:18.985Z,448.00
2022-10-20T06:16:17.500Z,478.00
2022-10-20T06:17:17.492Z,509.00
2022-10-20T06:18:17.467Z,534.00
2022-10-20T06:19:17.469Z,578.00
2022-10-20T06:20:17.457Z,618.00
2022-10-20T06:21:17.451Z,640.00
2022-10-20T06:22:17.888Z,675.00
2022-10-20T06:23:17.438Z,694.00
2022-10-20T06:24:17.430Z,715.00
2022-10-20T06:25:17.428Z,741.00
2022-10-20T06:26:17.430Z,772.00
2022-10-20T06:27:17.428Z,805.00
2022-10-20T06:28:17.450Z,814.00
2022-10-20T06:29:17.398Z,832.00
2022-10-20T06:30:17.397Z,858.00
2022-10-20T06:31:17.466Z,851.00
2022-10-20T06:32:17.389Z,883.00
2022-10-20T06:33:17.376Z,889.00
2022-10-20T06:34:17.370Z,926.00
2022-10-20T06:35:17.376Z,930.00
2022-10-20T06:36:17.616Z,960.00
2022-10-20T06:37:17.365Z,995.00
2022-10-20T06:38:17.585Z,1043.00
2022-10-20T06:39:17.336Z,1095.00
2022-10-20T06:40:17.324Z,1132.00
2022-10-20T06:41:17.803Z,1203.00
2022-10-20T06:42:17.344Z,1274.00
2022-10-20T06:43:17.367Z,1346.00
2022-10-20T06:44:17.302Z,1421.00
2022-10-20T06:45:17.891Z,1489.00
2022-10-20T06:46:17.353Z,1577.00
2022-10-20T06:47:17.302Z,1649.00
2022-10-20T06:48:17.292Z,1691.00
2022-10-20T06:49:17.444Z,1769.00
2022-10-20T06:50:17.303Z,1833.00
2022-10-20T06:51:17.283Z,1935.00
2022-10-20T06:52:17.591Z,2005.00
2022-10-20T06:53:17.602Z,2111.00
2022-10-20T06:54:17.231Z,2132.00
2022-10-20T06:55:17.231Z,2183.00
2022-10-20T06:56:17.238Z,2248.00
2022-10-20T06:57:17.210Z,2327.00
2022-10-20T06:58:17.210Z,2366.00
2022-10-20T06:59:17.207Z,2412.00
2022-10-20T07:00:17.312Z,2470.00
2022-10-20T07:01:17.328Z,2503.00
2022-10-20T07:02:17.170Z,2525.00
2022-10-20T07:03:17.180Z,2495.00
2022-10-20T07:04:17.161Z,2425.00
2022-10-20T07:05:17.287Z,2368.00
2022-10-20T07:06:17.293Z,2353.00
2022-10-20T07:07:17.507Z,2356.00
2022-10-20T07:08:17.170Z,2356.00
2022-10-20T07:09:17.307Z,2404.00
2022-10-20T07:10:17.599Z,2452.00
2022-10-20T07:11:17.601Z,2496.00
2022-10-20T07:12:17.143Z,2542.00
2022-10-20T07:13:17.537Z,2606.00
2022-10-20T07:14:17.827Z,2672.00
2022-10-20T07:15:17.687Z,2703.00
2022-10-20T07:16:17.145Z,2730.00
2022-10-20T07:17:17.986Z,2794.00
2022-10-20T07:18:17.979Z,2853.00
2022-10-20T07:19:17.987Z,2955.00
2022-10-20T07:20:17.099Z,3071.00
2022-10-20T07:21:17.953Z,3210.00
2022-10-20T07:22:17.076Z,3372.00
2022-10-20T07:23:17.074Z,3525.00
2022-10-20T07:24:17.054Z,3677.00
2022-10-20T07:25:17.081Z,3814.00
2022-10-20T07:26:17.213Z,3930.00
2022-10-20T07:27:17.222Z,4033.00
2022-10-20T07:28:17.073Z,4143.00
2022-10-20T07:29:17.292Z,4256.00
2022-10-20T07:30:17.034Z,4336.00
2022-10-20T07:31:17.454Z,4423.00
2022-10-20T07:32:17.467Z,4420.00
2022-10-20T07:33:17.052Z,4410.00
2022-10-20T07:34:26.843Z,4405.00
2022-10-20T07:35:17.142Z,4457.00
2022-10-20T07:36:17.041Z,4501.00
2022-10-20T07:37:17.137Z,4528.00
2022-10-20T07:38:17.089Z,4574.00
2022-10-20T07:39:17.103Z,4645.00
2022-10-20T07:40:17.253Z,4703.00
2022-10-20T07:41:16.985Z,4755.00
2022-10-20T07:42:16.946Z,4837.00
2022-10-20T07:43:17.740Z,4931.00
2022-10-20T07:44:17.027Z,5018.00
2022-10-20T07:45:16.989Z,5079.00
2022-10-20T07:46:17.148Z,5163.00
2022-10-20T07:47:17.749Z,5259.00
2022-10-20T07:48:16.959Z,5344.00
2022-10-20T07:50:16.885Z,5439.00
2022-10-20T07:51:16.988Z,5478.00
2022-10-20T07:52:16.982Z,5437.00
2022-10-20T07:53:16.868Z,5376.00
2022-10-20T07:54:16.847Z,5343.00
2022-10-20T07:55:37.692Z,5373.00
2022-10-20T07:56:17.016Z,5474.00
2022-10-20T07:57:17.017Z,5567.00
2022-10-20T07:58:16.887Z,5709.00
2022-10-20T07:59:16.826Z,5800.00
2022-10-20T08:00:16.847Z,5890.00
2022-10-20T08:01:16.969Z,5961.00
2022-10-20T08:02:17.846Z,6057.00
2022-10-20T08:03:16.873Z,6120.00
2022-10-20T08:04:16.826Z,6249.00
2022-10-20T08:05:16.882Z,6400.00
2022-10-20T08:06:17.144Z,6583.00
2022-10-20T08:07:17.064Z,6694.00
2022-10-20T08:08:17.112Z,6764.00
2022-10-20T08:09:16.885Z,6812.00
2022-10-20T08:10:17.145Z,6855.00
2022-10-20T08:11:16.906Z,6935.00
2022-10-20T08:12:17.117Z,6987.00
2022-10-20T08:13:16.707Z,6994.00
2022-10-20T08:14:16.924Z,7050.00
2022-10-20T08:15:16.975Z,7024.00
2022-10-20T08:16:19.083Z,6977.00
2022-10-20T08:17:17.151Z,6959.00
2022-10-20T08:18:18.533Z,6941.00
2022-10-20T08:19:20.041Z,6955.00
2022-10-20T08:20:19.592Z,6996.00
2022-10-20T08:21:16.976Z,7011.00
2022-10-20T08:22:17.232Z,7070.00
2022-10-20T08:23:17.031Z,7124.00
2022-10-20T08:24:16.633Z,7171.00
2022-10-20T08:25:16.633Z,7221.00
2022-10-20T08:26:16.642Z,7278.00
2022-10-20T08:27:17.426Z,7350.00
2022-10-20T08:28:16.623Z,7413.00
2022-10-20T08:29:16.621Z,7445.00
2022-10-20T08:30:23.759Z,7468.00
2022-10-20T08:31:16.672Z,7477.00
2022-10-20T08:32:16.680Z,7498.00
2022-10-20T08:33:16.580Z,7376.00
2022-10-20T08:34:16.650Z,7263.00
2022-10-20T08:35:16.872Z,7475.00
2022-10-20T08:36:16.910Z,7512.00
2022-10-20T08:41:08.728Z,0.00
2022-10-20T08:42:09.600Z,7160.00
2022-10-20T08:43:08.528Z,6804.00
2022-10-20T08:44:08.460Z,6986.00
2022-10-20T08:45:08.717Z,6948.00
2022-10-20T08:46:08.490Z,7045.00
2022-10-20T08:47:08.409Z,7457.00
2022-10-20T08:48:08.459Z,8111.00
2022-10-20T08:49:08.377Z,8365.00
2022-10-20T08:50:08.382Z,8508.00
2022-10-20T08:51:08.476Z,8480.00
2022-10-20T08:52:08.391Z,8792.00
2022-10-20T08:53:08.466Z,8944.00
2022-10-20T08:54:08.476Z,8569.00
2022-10-20T08:56:35.173Z,0.00
2022-10-20T08:57:36.267Z,8282.00
2022-10-20T08:58:35.241Z,8800.00
2022-10-20T08:59:34.705Z,8354.00
2022-10-20T09:00:34.302Z,7837.00
2022-10-20T09:01:34.397Z,7817.00
2022-10-20T09:02:34.322Z,7868.00
2022-10-20T09:03:34.292Z,8113.00
2022-10-20T09:04:34.828Z,8072.00
2022-10-20T09:05:34.352Z,8215.00
2022-10-20T09:06:35.228Z,8266.00
2022-10-20T09:07:35.446Z,8117.00
2022-10-20T09:08:35.072Z,8418.00
2022-10-20T09:09:34.243Z,8389.00
2022-10-20T09:10:35.001Z,8386.00
2022-10-20T09:11:35.252Z,8274.00
2022-10-20T09:12:35.161Z,7873.00
2022-10-20T09:13:34.871Z,7914.00
2022-10-20T09:14:34.200Z,7837.00
2022-10-20T09:15:35.131Z,8254.00
2022-10-20T09:16:42.320Z,8300.00
2022-10-20T09:17:35.470Z,8672.00
2022-10-20T09:18:35.642Z,8798.00
2022-10-20T09:19:35.029Z,9179.00
2022-10-20T09:20:34.440Z,9393.00
2022-10-20T09:21:35.066Z,9131.00
2022-10-20T09:22:36.207Z,9209.00
2022-10-20T09:23:41.236Z,9515.00
2022-10-20T09:24:35.578Z,9817.00
2022-10-20T09:25:34.157Z,9762.00
2022-10-20T09:26:54.243Z,9699.00
2022-10-20T09:27:35.337Z,9796.00
2022-10-20T09:28:43.060Z,9896.00
2022-10-20T09:29:34.116Z,9917.00
2022-10-20T09:30:35.060Z,9735.00
2022-10-20T09:31:34.094Z,9560.00
2022-10-20T09:32:55.507Z,9834.00
2022-10-20T09:33:34.972Z,9908.00
2022-10-20T09:34:34.338Z,9961.00
2022-10-20T09:35:34.997Z,9691.00
2022-10-20T09:36:34.117Z,9971.00
2022-10-20T09:37:35.506Z,9754.00
2022-10-20T09:38:34.051Z,9550.00
2022-10-20T09:39:34.082Z,9345.00
2022-10-20T09:40:34.197Z,8786.00
2022-10-20T09:41:34.013Z,8642.00
2022-10-20T09:42:35.170Z,8492.00
2022-10-20T09:43:34.195Z,8388.00
2022-10-20T09:44:34.906Z,8573.00
2022-10-20T09:45:34.028Z,8302.00
2022-10-20T09:46:33.996Z,8265.00
2022-10-20T09:47:34.876Z,8245.00
2022-10-20T09:48:34.774Z,8074.00
2022-10-20T09:49:34.945Z,8205.00
2022-10-20T09:50:33.946Z,8422.00
2022-10-20T09:51:34.904Z,8898.00
2022-10-20T09:52:34.275Z,9112.00
2022-10-20T09:53:33.966Z,9237.00
2022-10-20T09:54:33.946Z,9231.00
2022-10-20T09:55:33.918Z,9344.00
2022-10-20T09:56:33.905Z,9276.00
2022-10-20T09:57:34.676Z,8939.00
2022-10-20T09:58:34.299Z,8580.00
2022-10-20T09:59:34.291Z,8272.00
2022-10-20T10:00:38.105Z,8283.00
2022-10-20T10:01:34.575Z,8463.00
2022-10-20T10:02:34.201Z,8707.00
2022-10-20T10:03:34.874Z,9025.00
2022-10-20T10:04:33.993Z,9553.00
2022-10-20T10:05:34.681Z,10037.00
2022-10-20T10:06:33.863Z,10554.00
2022-10-20T10:07:33.883Z,10928.00
2022-10-20T10:08:33.991Z,11113.00
2022-10-20T10:09:34.192Z,11190.00
2022-10-20T10:10:33.852Z,11047.00
2022-10-20T10:11:34.617Z,10910.00
2022-10-20T10:12:34.042Z,10885.00
2022-10-20T10:13:34.212Z,10957.00
2022-10-20T10:14:33.782Z,11172.00
2022-10-20T10:15:33.795Z,11607.00
2022-10-20T10:16:33.802Z,11866.00
2022-10-20T10:17:34.139Z,12227.00
2022-10-20T10:18:33.881Z,12492.00
2022-10-20T10:19:34.614Z,12822.00
2022-10-20T10:20:33.795Z,13267.00
2022-10-20T10:21:33.721Z,13325.00
2022-10-20T10:22:33.998Z,13273.00
2022-10-20T10:23:33.916Z,13120.00
2022-10-20T10:24:34.651Z,12914.00
2022-10-20T10:25:33.736Z,12937.00
2022-10-20T10:26:33.891Z,12891.00
2022-10-20T10:27:33.941Z,12850.00
2022-10-20T10:28:33.701Z,12542.00
2022-10-20T10:29:33.715Z,11957.00
2022-10-20T10:30:34.583Z,11189.00
2022-10-20T10:31:33.717Z,10736.00
2022-10-20T10:32:34.983Z,10319.00
2022-10-20T10:33:33.683Z,10306.00
2022-10-20T10:34:34.161Z,10176.00
2022-10-20T10:35:33.766Z,10199.00
2022-10-20T10:36:34.072Z,10488.00
2022-10-20T10:37:35.199Z,10977.00
2022-10-20T10:38:34.585Z,11064.00
2022-10-20T10:39:33.610Z,11027.00
2022-10-20T10:40:33.643Z,11248.00
2022-10-20T10:41:33.612Z,11567.00
2022-10-20T10:42:33.727Z,11895.00
2022-10-20T10:43:33.639Z,12218.00
2022-10-20T10:44:33.635Z,12505.00
2022-10-20T10:45:33.612Z,12980.00
2022-10-20T10:46:34.627Z,13168.00
2022-10-20T10:47:37.799Z,12760.00
2022-10-20T10:48:33.816Z,12437.00
2022-10-20T10:49:34.552Z,12055.00
2022-10-20T10:50:33.650Z,12161.00
2022-10-20T10:51:33.591Z,12564.00
2022-10-20T10:52:33.871Z,11947.00
2022-10-20T10:53:33.542Z,11551.00
2022-10-20T10:54:33.523Z,11918.00
2022-10-20T10:55:49.500Z,12077.00
2022-10-20T10:56:34.101Z,11663.00
2022-10-20T10:57:33.633Z,10951.00
2022-10-20T10:58:33.499Z,10180.00
2022-10-20T10:59:33.471Z,9618.00
2022-10-20T11:00:34.160Z,9102.00
2022-10-20T11:01:33.463Z,8471.00
2022-10-20T11:02:33.689Z,8119.00
2022-10-20T11:03:37.534Z,7857.00
2022-10-20T11:04:33.539Z,7565.00
2022-10-20T11:05:33.426Z,7272.00
2022-10-20T11:06:33.422Z,6997.00
2022-10-20T11:07:34.641Z,6484.00
2022-10-20T11:08:33.528Z,6035.00
2022-10-20T11:09:33.392Z,5624.00
2022-10-20T11:10:33.380Z,5297.00
2022-10-20T11:11:33.380Z,5121.00
2022-10-20T11:12:33.390Z,4922.00
2022-10-20T11:13:33.443Z,4704.00
2022-10-20T11:14:33.370Z,4414.00
2022-10-20T11:15:34.841Z,4354.00
2022-10-20T11:16:33.410Z,4543.00
2022-10-20T11:17:33.547Z,5084.00
2022-10-20T11:18:33.360Z,5775.00
2022-10-20T11:19:33.428Z,6261.00
2022-10-20T11:20:33.408Z,6552.00
2022-10-20T11:21:33.320Z,6529.00
2022-10-20T11:22:33.318Z,6493.00
2022-10-20T11:24:33.457Z,7424.00
2022-10-20T11:25:34.170Z,7765.00
2022-10-20T11:26:33.349Z,7371.00
2022-10-20T11:27:33.419Z,6776.00
2022-10-20T11:28:33.279Z,6494.00
2022-10-20T11:29:34.134Z,6953.00
2022-10-20T11:30:33.715Z,8495.00
2022-10-20T11:31:33.238Z,9910.00
2022-10-20T11:32:33.376Z,10393.00
2022-10-20T11:33:35.704Z,9581.00
2022-10-20T11:34:33.538Z,8835.00
2022-10-20T11:35:33.276Z,8068.00
2022-10-20T11:36:33.211Z,7247.00
2022-10-20T11:37:33.561Z,6513.00
2022-10-20T11:38:33.547Z,6051.00
2022-10-20T11:39:34.167Z,5776.00
2022-10-20T11:40:33.218Z,5721.00
2022-10-20T11:41:33.224Z,5600.00
2022-10-20T11:42:33.737Z,5793.00
2022-10-20T11:43:33.985Z,6061.00
2022-10-20T11:44:33.189Z,6331.00
2022-10-20T11:45:33.216Z,6128.00
2022-10-20T11:46:33.231Z,5539.00
2022-10-20T11:47:34.105Z,5007.00
2022-10-20T11:48:33.417Z,4532.00
2022-10-20T11:49:33.437Z,4399.00
2022-10-20T11:50:33.437Z,4658.00
2022-10-20T11:51:33.267Z,5077.00
2022-10-20T11:52:33.255Z,5595.00
2022-10-20T11:53:33.151Z,5893.00
2022-10-20T11:54:33.946Z,5990.00
2022-10-20T11:55:33.135Z,5969.00
2022-10-20T11:56:34.008Z,5822.00
2022-10-20T11:57:34.555Z,5849.00
2022-10-20T11:58:34.076Z,5819.00
2022-10-20T11:59:33.170Z,5775.00
2022-10-20T12:00:33.086Z,5842.00
2022-10-20T12:01:34.053Z,5732.00
2022-10-20T12:02:33.155Z,5407.00
2022-10-20T12:03:33.850Z,4874.00
2022-10-20T12:04:34.024Z,4465.00
2022-10-20T12:05:33.044Z,4238.00
2022-10-20T12:06:33.125Z,4063.00
2022-10-20T12:07:33.007Z,3804.00
2022-10-20T12:08:33.032Z,3480.00
2022-10-20T12:09:33.785Z,3258.00
2022-10-20T12:10:33.945Z,3379.00
2022-10-20T12:11:33.120Z,3453.00
2022-10-20T12:12:32.983Z,3445.00
2022-10-20T12:13:32.985Z,3342.00
2022-10-20T12:14:33.816Z,3159.00
2022-10-20T12:15:33.984Z,3012.00
2022-10-20T12:16:33.883Z,2895.00
2022-10-20T12:17:33.783Z,2757.00
2022-10-20T12:18:33.960Z,2752.00
2022-10-20T12:19:33.843Z,2621.00
2022-10-20T12:20:33.783Z,2482.00
2022-10-20T12:21:34.460Z,2353.00
2022-10-20T12:22:33.275Z,2310.00
2022-10-20T12:23:33.653Z,2296.00
2022-10-20T12:24:33.904Z,2310.00
2022-10-20T12:25:33.095Z,2475.00
2022-10-20T12:26:33.692Z,2822.00
2022-10-20T12:27:33.853Z,3091.00
2022-10-20T12:28:32.885Z,3314.00
2022-10-20T12:29:32.895Z,3227.00
2022-10-20T12:30:33.056Z,2987.00
2022-10-20T12:31:33.704Z,3038.00
2022-10-20T12:32:32.841Z,3242.00
2022-10-20T12:33:32.861Z,3775.00
2022-10-20T12:34:32.842Z,4240.00
2022-10-20T12:35:32.883Z,4973.00
2022-10-20T12:36:32.836Z,5708.00
2022-10-20T12:37:33.131Z,6095.00
2022-10-20T12:38:32.791Z,5897.00
2022-10-20T12:39:33.016Z,5327.00
2022-10-20T12:40:32.945Z,4771.00
2022-10-20T12:41:32.803Z,4457.00
2022-10-20T12:42:33.690Z,4314.00
2022-10-20T12:43:32.762Z,4221.00
2022-10-20T12:44:32.751Z,4079.00
2022-10-20T12:45:32.750Z,3948.00
2022-10-20T12:46:33.561Z,3719.00
2022-10-20T12:47:32.791Z,3742.00